sensor_id;sensor_type;location;lat;lon;timestamp;P1;durP1;ratioP1;P2;durP2;ratioP2
43150;SDS011;28755;51.478;5.702;2023-02-28T00:00:45;10.73;;;5.93;;
43150;SDS011;28755;51.478;5.702;2023-02-28T00:03:11;9.45;;;6.38;;
43150;SDS011;28755;51.478;5.702;2023-02-28T00:05:37;10.43;;;6.00;;
43150;SDS011;28755;51.478;5.702;2023-02-28T00:08:02;10.05;;;6.28;;
43150;SDS011;28755;51.478;5.702;2023-02-28T00:10:29;8.88;;;6.35;;
43150;SDS011;28755;51.478;5.702;2023-02-28T00:12:58;13.50;;;6.13;;
43150;SDS011;28755;51.478;5.702;2023-02-28T00:17:51;10.10;;;5.93;;
43150;SDS011;28755;51.478;5.702;2023-02-28T00:20:17;11.13;;;7.00;;
43150;SDS011;28755;51.478;5.702;2023-02-28T00:22:44;10.98;;;6.68;;
43150;SDS011;28755;51.478;5.702;2023-02-28T00:25:12;11.88;;;6.53;;
43150;SDS011;28755;51.478;5.702;2023-02-28T00:27:40;17.92;;;7.20;;
43150;SDS011;28755;51.478;5.702;2023-02-28T00:30:07;9.10;;;6.78;;
43150;SDS011;28755;51.478;5.702;2023-02-28T00:32:35;11.40;;;7.32;;
43150;SDS011;28755;51.478;5.702;2023-02-28T00:35:01;9.93;;;7.13;;
43150;SDS011;28755;51.478;5.702;2023-02-28T00:37:27;14.35;;;7.28;;
43150;SDS011;28755;51.478;5.702;2023-02-28T00:39:53;12.93;;;7.47;;
43150;SDS011;28755;51.478;5.702;2023-02-28T00:42:18;17.90;;;7.32;;
43150;SDS011;28755;51.478;5.702;2023-02-28T00:44:44;13.93;;;7.32;;
43150;SDS011;28755;51.478;5.702;2023-02-28T00:47:09;10.13;;;7.15;;
43150;SDS011;28755;51.478;5.702;2023-02-28T00:49:35;13.30;;;7.85;;
43150;SDS011;28755;51.478;5.702;2023-02-28T00:52:00;12.15;;;7.95;;
43150;SDS011;28755;51.478;5.702;2023-02-28T00:54:26;13.15;;;7.75;;
43150;SDS011;28755;51.478;5.702;2023-02-28T00:56:52;13.60;;;7.75;;
43150;SDS011;28755;51.478;5.702;2023-02-28T00:59:18;11.45;;;7.32;;
43150;SDS011;28755;51.478;5.702;2023-02-28T01:01:44;12.88;;;7.57;;
43150;SDS011;28755;51.478;5.702;2023-02-28T01:04:11;13.73;;;8.05;;
43150;SDS011;28755;51.478;5.702;2023-02-28T01:06:37;13.05;;;7.50;;
43150;SDS011;28755;51.478;5.702;2023-02-28T01:09:03;12.65;;;7.60;;
43150;SDS011;28755;51.478;5.702;2023-02-28T01:11:30;13.15;;;7.95;;
43150;SDS011;28755;51.478;5.702;2023-02-28T01:13:57;11.20;;;7.43;;
43150;SDS011;28755;51.478;5.702;2023-02-28T01:16:22;13.38;;;8.45;;
43150;SDS011;28755;51.478;5.702;2023-02-28T01:18:48;9.95;;;7.28;;
43150;SDS011;28755;51.478;5.702;2023-02-28T01:21:14;14.05;;;8.32;;
43150;SDS011;28755;51.478;5.702;2023-02-28T01:23:42;14.93;;;8.13;;
43150;SDS011;28755;51.478;5.702;2023-02-28T01:26:09;11.05;;;7.22;;
43150;SDS011;28755;51.478;5.702;2023-02-28T01:28:39;14.20;;;7.75;;
43150;SDS011;28755;51.478;5.702;2023-02-28T01:31:04;14.48;;;8.02;;
43150;SDS011;28755;51.478;5.702;2023-02-28T01:33:30;17.13;;;7.88;;
43150;SDS011;28755;51.478;5.702;2023-02-28T01:36:00;12.20;;;7.50;;
43150;SDS011;28755;51.478;5.702;2023-02-28T01:38:25;18.67;;;8.18;;
43150;SDS011;28755;51.478;5.702;2023-02-28T01:40:51;12.27;;;8.05;;
43150;SDS011;28755;51.478;5.702;2023-02-28T01:43:28;8.73;;;7.30;;
43150;SDS011;28755;51.478;5.702;2023-02-28T01:46:16;12.82;;;8.05;;
43150;SDS011;28755;51.478;5.702;2023-02-28T01:48:51;12.98;;;8.52;;
43150;SDS011;28755;51.478;5.702;2023-02-28T01:51:26;13.00;;;8.07;;
43150;SDS011;28755;51.478;5.702;2023-02-28T01:53:56;11.30;;;7.90;;
43150;SDS011;28755;51.478;5.702;2023-02-28T01:56:27;11.45;;;7.90;;
43150;SDS011;28755;51.478;5.702;2023-02-28T01:58:58;16.02;;;8.48;;
43150;SDS011;28755;51.478;5.702;2023-02-28T02:01:24;12.90;;;8.57;;
43150;SDS011;28755;51.478;5.702;2023-02-28T02:03:55;12.68;;;7.65;;
43150;SDS011;28755;51.478;5.702;2023-02-28T02:06:29;12.90;;;8.48;;
43150;SDS011;28755;51.478;5.702;2023-02-28T02:08:59;15.77;;;8.20;;
43150;SDS011;28755;51.478;5.702;2023-02-28T02:11:25;12.27;;;7.50;;
43150;SDS011;28755;51.478;5.702;2023-02-28T02:23:18;11.85;;;7.40;;
43150;SDS011;28755;51.478;5.702;2023-02-28T02:25:44;12.00;;;7.70;;
43150;SDS011;28755;51.478;5.702;2023-02-28T02:36:07;15.48;;;8.20;;
43150;SDS011;28755;51.478;5.702;2023-02-28T02:38:48;13.00;;;8.18;;
43150;SDS011;28755;51.478;5.702;2023-02-28T02:46:58;14.32;;;7.80;;
43150;SDS011;28755;51.478;5.702;2023-02-28T02:49:31;12.60;;;8.13;;
43150;SDS011;28755;51.478;5.702;2023-02-28T02:52:00;12.57;;;8.05;;
43150;SDS011;28755;51.478;5.702;2023-02-28T02:54:36;13.88;;;7.85;;
43150;SDS011;28755;51.478;5.702;2023-02-28T02:57:08;14.00;;;8.60;;
43150;SDS011;28755;51.478;5.702;2023-02-28T02:59:39;14.25;;;8.65;;
43150;SDS011;28755;51.478;5.702;2023-02-28T03:02:06;13.20;;;8.48;;
43150;SDS011;28755;51.478;5.702;2023-02-28T03:04:42;10.85;;;7.72;;
43150;SDS011;28755;51.478;5.702;2023-02-28T03:07:11;12.45;;;7.95;;
43150;SDS011;28755;51.478;5.702;2023-02-28T03:09:36;12.52;;;7.93;;
43150;SDS011;28755;51.478;5.702;2023-02-28T03:12:02;13.15;;;7.38;;
43150;SDS011;28755;51.478;5.702;2023-02-28T03:23:01;14.43;;;8.27;;
43150;SDS011;28755;51.478;5.702;2023-02-28T03:25:45;15.13;;;8.63;;
43150;SDS011;28755;51.478;5.702;2023-02-28T03:28:43;12.85;;;8.27;;
43150;SDS011;28755;51.478;5.702;2023-02-28T03:31:38;12.88;;;7.88;;
43150;SDS011;28755;51.478;5.702;2023-02-28T03:36:37;12.40;;;7.53;;
43150;SDS011;28755;51.478;5.702;2023-02-28T03:39:12;15.45;;;8.07;;
43150;SDS011;28755;51.478;5.702;2023-02-28T03:41:50;13.95;;;7.43;;
43150;SDS011;28755;51.478;5.702;2023-02-28T03:44:29;14.05;;;7.32;;
43150;SDS011;28755;51.478;5.702;2023-02-28T03:47:13;12.82;;;7.55;;
43150;SDS011;28755;51.478;5.702;2023-02-28T03:49:59;12.60;;;7.30;;
43150;SDS011;28755;51.478;5.702;2023-02-28T03:55:48;10.70;;;7.13;;
43150;SDS011;28755;51.478;5.702;2023-02-28T03:58:22;12.73;;;7.15;;
43150;SDS011;28755;51.478;5.702;2023-02-28T04:01:06;15.00;;;7.28;;
43150;SDS011;28755;51.478;5.702;2023-02-28T04:03:36;9.95;;;6.55;;
43150;SDS011;28755;51.478;5.702;2023-02-28T04:06:04;11.43;;;6.70;;
43150;SDS011;28755;51.478;5.702;2023-02-28T04:08:31;14.85;;;6.45;;
43150;SDS011;28755;51.478;5.702;2023-02-28T04:11:08;11.80;;;6.13;;
43150;SDS011;28755;51.478;5.702;2023-02-28T04:16:06;11.80;;;6.80;;
43150;SDS011;28755;51.478;5.702;2023-02-28T04:18:40;10.98;;;6.63;;
43150;SDS011;28755;51.478;5.702;2023-02-28T04:21:07;9.65;;;5.78;;
43150;SDS011;28755;51.478;5.702;2023-02-28T04:23:33;9.43;;;5.95;;
43150;SDS011;28755;51.478;5.702;2023-02-28T04:25:59;11.05;;;5.55;;
43150;SDS011;28755;51.478;5.702;2023-02-28T04:28:25;11.65;;;6.22;;
43150;SDS011;28755;51.478;5.702;2023-02-28T04:30:54;9.13;;;5.95;;
43150;SDS011;28755;51.478;5.702;2023-02-28T04:33:28;10.13;;;5.93;;
43150;SDS011;28755;51.478;5.702;2023-02-28T04:35:58;11.60;;;6.10;;
43150;SDS011;28755;51.478;5.702;2023-02-28T04:38:35;11.35;;;5.93;;
43150;SDS011;28755;51.478;5.702;2023-02-28T04:41:02;14.02;;;5.80;;
43150;SDS011;28755;51.478;5.702;2023-02-28T04:43:28;10.13;;;5.80;;
43150;SDS011;28755;51.478;5.702;2023-02-28T04:45:55;8.43;;;5.70;;
43150;SDS011;28755;51.478;5.702;2023-02-28T04:48:25;10.75;;;6.22;;
43150;SDS011;28755;51.478;5.702;2023-02-28T04:50:53;9.57;;;5.63;;
43150;SDS011;28755;51.478;5.702;2023-02-28T04:53:18;11.52;;;6.03;;
43150;SDS011;28755;51.478;5.702;2023-02-28T04:55:45;10.48;;;6.28;;
43150;SDS011;28755;51.478;5.702;2023-02-28T04:58:11;7.55;;;5.30;;
43150;SDS011;28755;51.478;5.702;2023-02-28T05:00:37;9.00;;;6.20;;
43150;SDS011;28755;51.478;5.702;2023-02-28T05:03:03;8.98;;;5.40;;
43150;SDS011;28755;51.478;5.702;2023-02-28T05:05:28;11.13;;;6.15;;
43150;SDS011;28755;51.478;5.702;2023-02-28T05:07:54;9.60;;;6.00;;
43150;SDS011;28755;51.478;5.702;2023-02-28T05:10:20;9.07;;;6.15;;
43150;SDS011;28755;51.478;5.702;2023-02-28T05:12:47;10.48;;;5.78;;
43150;SDS011;28755;51.478;5.702;2023-02-28T05:15:13;9.07;;;5.90;;
43150;SDS011;28755;51.478;5.702;2023-02-28T05:17:40;10.02;;;5.90;;
43150;SDS011;28755;51.478;5.702;2023-02-28T05:20:07;12.48;;;6.40;;
43150;SDS011;28755;51.478;5.702;2023-02-28T05:22:36;9.70;;;5.63;;
43150;SDS011;28755;51.478;5.702;2023-02-28T05:25:03;7.97;;;5.32;;
43150;SDS011;28755;51.478;5.702;2023-02-28T05:27:30;8.93;;;5.80;;
43150;SDS011;28755;51.478;5.702;2023-02-28T05:29:56;9.52;;;5.55;;
43150;SDS011;28755;51.478;5.702;2023-02-28T05:32:22;8.82;;;5.68;;
43150;SDS011;28755;51.478;5.702;2023-02-28T05:34:47;9.48;;;5.43;;
43150;SDS011;28755;51.478;5.702;2023-02-28T05:37:13;10.75;;;6.00;;
43150;SDS011;28755;51.478;5.702;2023-02-28T05:39:40;13.07;;;5.68;;
43150;SDS011;28755;51.478;5.702;2023-02-28T05:42:06;9.68;;;6.00;;
43150;SDS011;28755;51.478;5.702;2023-02-28T05:44:32;11.05;;;5.90;;
43150;SDS011;28755;51.478;5.702;2023-02-28T05:46:57;11.80;;;6.13;;
43150;SDS011;28755;51.478;5.702;2023-02-28T05:49:23;8.65;;;5.82;;
43150;SDS011;28755;51.478;5.702;2023-02-28T05:51:49;10.48;;;5.80;;
43150;SDS011;28755;51.478;5.702;2023-02-28T05:54:14;8.25;;;6.07;;
43150;SDS011;28755;51.478;5.702;2023-02-28T05:56:40;10.20;;;6.10;;
43150;SDS011;28755;51.478;5.702;2023-02-28T06:05:16;9.13;;;5.60;;
43150;SDS011;28755;51.478;5.702;2023-02-28T06:07:42;10.80;;;6.20;;
43150;SDS011;28755;51.478;5.702;2023-02-28T06:10:12;12.43;;;6.97;;
43150;SDS011;28755;51.478;5.702;2023-02-28T06:12:37;10.15;;;5.93;;
43150;SDS011;28755;51.478;5.702;2023-02-28T06:15:03;11.30;;;6.55;;
43150;SDS011;28755;51.478;5.702;2023-02-28T06:17:29;9.48;;;6.10;;
43150;SDS011;28755;51.478;5.702;2023-02-28T06:19:55;10.07;;;6.30;;
43150;SDS011;28755;51.478;5.702;2023-02-28T06:22:20;9.95;;;6.30;;
43150;SDS011;28755;51.478;5.702;2023-02-28T06:24:46;9.60;;;5.70;;
43150;SDS011;28755;51.478;5.702;2023-02-28T06:27:12;10.27;;;6.03;;
43150;SDS011;28755;51.478;5.702;2023-02-28T06:29:37;10.50;;;6.05;;
43150;SDS011;28755;51.478;5.702;2023-02-28T06:32:04;9.73;;;5.53;;
43150;SDS011;28755;51.478;5.702;2023-02-28T06:34:30;9.35;;;5.88;;
43150;SDS011;28755;51.478;5.702;2023-02-28T06:36:58;11.05;;;6.60;;
43150;SDS011;28755;51.478;5.702;2023-02-28T06:39:27;9.23;;;5.70;;
43150;SDS011;28755;51.478;5.702;2023-02-28T06:41:53;13.82;;;6.90;;
43150;SDS011;28755;51.478;5.702;2023-02-28T06:44:18;10.00;;;6.10;;
43150;SDS011;28755;51.478;5.702;2023-02-28T06:46:44;10.70;;;6.28;;
43150;SDS011;28755;51.478;5.702;2023-02-28T06:49:10;9.48;;;6.03;;
43150;SDS011;28755;51.478;5.702;2023-02-28T06:51:37;8.80;;;6.00;;
43150;SDS011;28755;51.478;5.702;2023-02-28T06:54:06;10.48;;;5.47;;
43150;SDS011;28755;51.478;5.702;2023-02-28T06:56:35;10.40;;;5.97;;
43150;SDS011;28755;51.478;5.702;2023-02-28T06:59:01;9.60;;;5.55;;
43150;SDS011;28755;51.478;5.702;2023-02-28T07:01:27;10.15;;;5.22;;
43150;SDS011;28755;51.478;5.702;2023-02-28T07:03:53;10.85;;;5.50;;
43150;SDS011;28755;51.478;5.702;2023-02-28T07:06:19;9.90;;;5.25;;
43150;SDS011;28755;51.478;5.702;2023-02-28T07:08:49;7.43;;;4.53;;
43150;SDS011;28755;51.478;5.702;2023-02-28T07:11:15;9.05;;;4.72;;
43150;SDS011;28755;51.478;5.702;2023-02-28T07:13:41;7.63;;;4.32;;
43150;SDS011;28755;51.478;5.702;2023-02-28T07:16:07;7.25;;;4.22;;
43150;SDS011;28755;51.478;5.702;2023-02-28T07:18:35;8.13;;;4.65;;
43150;SDS011;28755;51.478;5.702;2023-02-28T07:21:02;6.43;;;4.28;;
43150;SDS011;28755;51.478;5.702;2023-02-28T07:23:33;7.00;;;3.78;;
43150;SDS011;28755;51.478;5.702;2023-02-28T07:25:59;6.47;;;3.55;;
43150;SDS011;28755;51.478;5.702;2023-02-28T07:28:24;11.57;;;4.38;;
43150;SDS011;28755;51.478;5.702;2023-02-28T07:30:50;7.35;;;4.30;;
43150;SDS011;28755;51.478;5.702;2023-02-28T07:33:16;10.10;;;3.95;;
43150;SDS011;28755;51.478;5.702;2023-02-28T07:35:41;11.98;;;4.57;;
43150;SDS011;28755;51.478;5.702;2023-02-28T07:38:07;5.32;;;3.65;;
43150;SDS011;28755;51.478;5.702;2023-02-28T07:40:33;11.25;;;4.07;;
43150;SDS011;28755;51.478;5.702;2023-02-28T07:42:59;7.50;;;3.90;;
43150;SDS011;28755;51.478;5.702;2023-02-28T07:45:26;7.35;;;3.72;;
43150;SDS011;28755;51.478;5.702;2023-02-28T07:47:53;10.35;;;3.60;;
43150;SDS011;28755;51.478;5.702;2023-02-28T07:50:19;5.75;;;3.28;;
43150;SDS011;28755;51.478;5.702;2023-02-28T07:52:45;6.13;;;3.22;;
43150;SDS011;28755;51.478;5.702;2023-02-28T07:55:10;7.57;;;3.08;;
43150;SDS011;28755;51.478;5.702;2023-02-28T07:57:36;7.13;;;3.20;;
43150;SDS011;28755;51.478;5.702;2023-02-28T08:00:06;5.25;;;3.08;;
43150;SDS011;28755;51.478;5.702;2023-02-28T08:02:34;6.22;;;3.38;;
43150;SDS011;28755;51.478;5.702;2023-02-28T08:05:00;4.22;;;2.60;;
43150;SDS011;28755;51.478;5.702;2023-02-28T08:07:26;4.80;;;2.83;;
43150;SDS011;28755;51.478;5.702;2023-02-28T08:09:52;6.43;;;2.85;;
43150;SDS011;28755;51.478;5.702;2023-02-28T08:12:18;4.78;;;2.72;;
43150;SDS011;28755;51.478;5.702;2023-02-28T08:14:43;6.65;;;2.75;;
43150;SDS011;28755;51.478;5.702;2023-02-28T08:17:09;5.95;;;2.70;;
43150;SDS011;28755;51.478;5.702;2023-02-28T08:19:35;6.28;;;3.28;;
43150;SDS011;28755;51.478;5.702;2023-02-28T08:22:01;5.88;;;3.08;;
43150;SDS011;28755;51.478;5.702;2023-02-28T08:24:26;5.25;;;2.70;;
43150;SDS011;28755;51.478;5.702;2023-02-28T08:26:52;7.78;;;3.13;;
43150;SDS011;28755;51.478;5.702;2023-02-28T08:29:17;4.50;;;2.88;;
43150;SDS011;28755;51.478;5.702;2023-02-28T08:31:43;7.32;;;3.00;;
43150;SDS011;28755;51.478;5.702;2023-02-28T08:34:09;6.90;;;2.70;;
43150;SDS011;28755;51.478;5.702;2023-02-28T08:36:38;7.82;;;2.72;;
43150;SDS011;28755;51.478;5.702;2023-02-28T08:39:04;7.68;;;2.97;;
43150;SDS011;28755;51.478;5.702;2023-02-28T08:41:30;4.57;;;2.33;;
43150;SDS011;28755;51.478;5.702;2023-02-28T08:43:56;6.28;;;2.65;;
43150;SDS011;28755;51.478;5.702;2023-02-28T08:46:22;3.10;;;2.13;;
43150;SDS011;28755;51.478;5.702;2023-02-28T08:48:51;4.68;;;2.35;;
43150;SDS011;28755;51.478;5.702;2023-02-28T08:51:18;4.20;;;2.20;;
43150;SDS011;28755;51.478;5.702;2023-02-28T08:53:50;4.78;;;2.45;;
43150;SDS011;28755;51.478;5.702;2023-02-28T08:56:20;5.40;;;2.30;;
43150;SDS011;28755;51.478;5.702;2023-02-28T08:58:46;6.55;;;2.40;;
43150;SDS011;28755;51.478;5.702;2023-02-28T09:01:18;4.30;;;2.00;;
43150;SDS011;28755;51.478;5.702;2023-02-28T09:03:45;3.80;;;2.08;;
43150;SDS011;28755;51.478;5.702;2023-02-28T09:06:12;3.88;;;2.10;;
43150;SDS011;28755;51.478;5.702;2023-02-28T09:08:39;3.67;;;1.95;;
43150;SDS011;28755;51.478;5.702;2023-02-28T09:11:04;5.10;;;2.50;;
43150;SDS011;28755;51.478;5.702;2023-02-28T09:13:30;2.85;;;1.77;;
43150;SDS011;28755;51.478;5.702;2023-02-28T09:15:57;4.05;;;1.90;;
43150;SDS011;28755;51.478;5.702;2023-02-28T09:18:24;4.40;;;1.92;;
43150;SDS011;28755;51.478;5.702;2023-02-28T09:20:50;3.50;;;1.63;;
43150;SDS011;28755;51.478;5.702;2023-02-28T09:23:15;2.80;;;1.45;;
43150;SDS011;28755;51.478;5.702;2023-02-28T09:25:45;3.03;;;1.75;;
43150;SDS011;28755;51.478;5.702;2023-02-28T09:28:16;2.35;;;1.48;;
43150;SDS011;28755;51.478;5.702;2023-02-28T09:30:42;3.45;;;1.40;;
43150;SDS011;28755;51.478;5.702;2023-02-28T09:33:12;2.60;;;1.70;;
43150;SDS011;28755;51.478;5.702;2023-02-28T09:35:38;4.40;;;1.67;;
43150;SDS011;28755;51.478;5.702;2023-02-28T09:38:04;2.78;;;1.73;;
43150;SDS011;28755;51.478;5.702;2023-02-28T09:40:32;2.22;;;1.50;;
43150;SDS011;28755;51.478;5.702;2023-02-28T09:43:02;4.13;;;1.67;;
43150;SDS011;28755;51.478;5.702;2023-02-28T09:45:38;3.33;;;1.52;;
43150;SDS011;28755;51.478;5.702;2023-02-28T09:48:12;2.22;;;1.52;;
43150;SDS011;28755;51.478;5.702;2023-02-28T09:50:51;1.95;;;1.30;;
43150;SDS011;28755;51.478;5.702;2023-02-28T09:55:53;2.17;;;1.30;;
43150;SDS011;28755;51.478;5.702;2023-02-28T09:58:26;1.75;;;1.33;;
43150;SDS011;28755;51.478;5.702;2023-02-28T10:01:07;2.45;;;1.38;;
43150;SDS011;28755;51.478;5.702;2023-02-28T10:06:30;2.47;;;1.60;;
43150;SDS011;28755;51.478;5.702;2023-02-28T10:09:04;2.08;;;1.25;;
43150;SDS011;28755;51.478;5.702;2023-02-28T10:11:38;2.22;;;1.45;;
43150;SDS011;28755;51.478;5.702;2023-02-28T10:14:06;2.42;;;1.67;;
43150;SDS011;28755;51.478;5.702;2023-02-28T10:19:28;2.30;;;1.30;;
43150;SDS011;28755;51.478;5.702;2023-02-28T10:22:19;2.42;;;1.50;;
43150;SDS011;28755;51.478;5.702;2023-02-28T10:24:51;5.03;;;1.42;;
43150;SDS011;28755;51.478;5.702;2023-02-28T10:27:20;1.80;;;1.40;;
43150;SDS011;28755;51.478;5.702;2023-02-28T10:29:50;4.25;;;1.52;;
43150;SDS011;28755;51.478;5.702;2023-02-28T10:32:24;3.03;;;1.33;;
43150;SDS011;28755;51.478;5.702;2023-02-28T10:34:57;3.28;;;1.60;;
43150;SDS011;28755;51.478;5.702;2023-02-28T10:37:26;3.65;;;1.48;;
43150;SDS011;28755;51.478;5.702;2023-02-28T10:39:52;3.03;;;1.10;;
43150;SDS011;28755;51.478;5.702;2023-02-28T10:42:22;1.98;;;1.23;;
43150;SDS011;28755;51.478;5.702;2023-02-28T10:47:35;1.80;;;1.20;;
43150;SDS011;28755;51.478;5.702;2023-02-28T10:56:35;2.63;;;1.25;;
43150;SDS011;28755;51.478;5.702;2023-02-28T11:01:17;2.72;;;1.60;;
43150;SDS011;28755;51.478;5.702;2023-02-28T11:03:47;2.00;;;1.50;;
43150;SDS011;28755;51.478;5.702;2023-02-28T11:06:19;2.20;;;1.45;;
43150;SDS011;28755;51.478;5.702;2023-02-28T11:09:00;2.22;;;1.20;;
43150;SDS011;28755;51.478;5.702;2023-02-28T11:11:29;1.70;;;1.23;;
43150;SDS011;28755;51.478;5.702;2023-02-28T11:14:06;1.70;;;1.25;;
43150;SDS011;28755;51.478;5.702;2023-02-28T11:16:45;4.13;;;1.55;;
43150;SDS011;28755;51.478;5.702;2023-02-28T11:19:28;4.97;;;1.67;;
43150;SDS011;28755;51.478;5.702;2023-02-28T11:22:01;4.82;;;2.50;;
43150;SDS011;28755;51.478;5.702;2023-02-28T11:24:36;3.92;;;1.60;;
43150;SDS011;28755;51.478;5.702;2023-02-28T11:27:24;1.88;;;1.60;;
43150;SDS011;28755;51.478;5.702;2023-02-28T11:29:57;3.72;;;1.40;;
43150;SDS011;28755;51.478;5.702;2023-02-28T11:32:27;4.75;;;2.00;;
43150;SDS011;28755;51.478;5.702;2023-02-28T11:37:28;2.72;;;1.60;;
43150;SDS011;28755;51.478;5.702;2023-02-28T11:39:55;2.45;;;1.48;;
43150;SDS011;28755;51.478;5.702;2023-02-28T11:50:49;2.45;;;1.52;;
43150;SDS011;28755;51.478;5.702;2023-02-28T11:56:43;3.53;;;2.37;;
43150;SDS011;28755;51.478;5.702;2023-02-28T11:59:10;4.90;;;1.90;;
43150;SDS011;28755;51.478;5.702;2023-02-28T12:07:41;2.17;;;1.40;;
43150;SDS011;28755;51.478;5.702;2023-02-28T12:10:22;3.30;;;1.60;;
43150;SDS011;28755;51.478;5.702;2023-02-28T12:15:31;2.47;;;1.40;;
43150;SDS011;28755;51.478;5.702;2023-02-28T12:18:26;3.03;;;1.48;;
43150;SDS011;28755;51.478;5.702;2023-02-28T12:24:00;3.25;;;1.70;;
43150;SDS011;28755;51.478;5.702;2023-02-28T12:26:39;3.03;;;1.20;;
43150;SDS011;28755;51.478;5.702;2023-02-28T12:32:16;2.88;;;1.40;;
43150;SDS011;28755;51.478;5.702;2023-02-28T12:34:44;3.72;;;1.40;;
43150;SDS011;28755;51.478;5.702;2023-02-28T12:37:16;4.25;;;1.80;;
43150;SDS011;28755;51.478;5.702;2023-02-28T12:39:48;4.25;;;1.55;;
43150;SDS011;28755;51.478;5.702;2023-02-28T12:42:24;4.55;;;1.90;;
43150;SDS011;28755;51.478;5.702;2023-02-28T12:47:56;6.18;;;1.50;;
43150;SDS011;28755;51.478;5.702;2023-02-28T12:50:25;2.85;;;1.40;;
43150;SDS011;28755;51.478;5.702;2023-02-28T12:53:00;2.38;;;1.58;;
43150;SDS011;28755;51.478;5.702;2023-02-28T12:58:20;2.33;;;1.50;;
43150;SDS011;28755;51.478;5.702;2023-02-28T13:06:25;2.65;;;1.70;;
43150;SDS011;28755;51.478;5.702;2023-02-28T13:09:04;2.63;;;1.50;;
43150;SDS011;28755;51.478;5.702;2023-02-28T13:11:39;3.85;;;1.25;;
43150;SDS011;28755;51.478;5.702;2023-02-28T13:19:27;2.08;;;1.35;;
43150;SDS011;28755;51.478;5.702;2023-02-28T13:21:58;2.75;;;1.52;;
43150;SDS011;28755;51.478;5.702;2023-02-28T13:29:34;4.53;;;1.65;;
43150;SDS011;28755;51.478;5.702;2023-02-28T13:34:32;5.25;;;1.67;;
43150;SDS011;28755;51.478;5.702;2023-02-28T13:39:57;3.15;;;1.77;;
43150;SDS011;28755;51.478;5.702;2023-02-28T13:42:35;2.80;;;1.60;;
43150;SDS011;28755;51.478;5.702;2023-02-28T13:55:46;3.00;;;1.70;;
43150;SDS011;28755;51.478;5.702;2023-02-28T14:06:37;3.97;;;2.03;;
43150;SDS011;28755;51.478;5.702;2023-02-28T14:11:38;3.45;;;2.10;;
43150;SDS011;28755;51.478;5.702;2023-02-28T14:14:06;3.07;;;2.00;;
43150;SDS011;28755;51.478;5.702;2023-02-28T14:16:46;4.85;;;2.17;;
43150;SDS011;28755;51.478;5.702;2023-02-28T14:19:17;3.15;;;2.08;;
43150;SDS011;28755;51.478;5.702;2023-02-28T14:22:05;3.78;;;2.33;;
43150;SDS011;28755;51.478;5.702;2023-02-28T14:36:31;2.95;;;1.70;;
43150;SDS011;28755;51.478;5.702;2023-02-28T14:39:07;2.60;;;2.10;;
43150;SDS011;28755;51.478;5.702;2023-02-28T14:41:39;5.00;;;2.17;;
43150;SDS011;28755;51.478;5.702;2023-02-28T14:44:13;2.97;;;2.10;;
43150;SDS011;28755;51.478;5.702;2023-02-28T14:46:43;3.30;;;2.00;;
43150;SDS011;28755;51.478;5.702;2023-02-28T14:55:00;2.97;;;1.90;;
43150;SDS011;28755;51.478;5.702;2023-02-28T14:57:35;2.65;;;2.00;;
43150;SDS011;28755;51.478;5.702;2023-02-28T15:00:13;3.15;;;2.13;;
43150;SDS011;28755;51.478;5.702;2023-02-28T15:02:42;5.28;;;2.03;;
43150;SDS011;28755;51.478;5.702;2023-02-28T15:07:45;4.40;;;1.77;;
43150;SDS011;28755;51.478;5.702;2023-02-28T15:12:47;3.70;;;2.10;;
43150;SDS011;28755;51.478;5.702;2023-02-28T15:15:21;4.95;;;2.10;;
43150;SDS011;28755;51.478;5.702;2023-02-28T15:18:06;3.30;;;1.88;;
43150;SDS011;28755;51.478;5.702;2023-02-28T15:20:38;2.63;;;1.75;;
43150;SDS011;28755;51.478;5.702;2023-02-28T15:23:16;2.45;;;1.83;;
43150;SDS011;28755;51.478;5.702;2023-02-28T15:25:43;2.40;;;1.65;;
43150;SDS011;28755;51.478;5.702;2023-02-28T15:28:11;2.20;;;1.73;;
43150;SDS011;28755;51.478;5.702;2023-02-28T15:30:50;3.97;;;1.90;;
43150;SDS011;28755;51.478;5.702;2023-02-28T15:33:21;3.80;;;1.90;;
43150;SDS011;28755;51.478;5.702;2023-02-28T15:35:51;3.00;;;1.70;;
43150;SDS011;28755;51.478;5.702;2023-02-28T15:38:27;5.85;;;2.20;;
43150;SDS011;28755;51.478;5.702;2023-02-28T15:40:55;3.80;;;2.35;;
43150;SDS011;28755;51.478;5.702;2023-02-28T15:43:26;6.10;;;3.42;;
43150;SDS011;28755;51.478;5.702;2023-02-28T15:45:55;13.40;;;5.35;;
43150;SDS011;28755;51.478;5.702;2023-02-28T15:50:58;4.43;;;2.00;;
43150;SDS011;28755;51.478;5.702;2023-02-28T15:53:35;2.80;;;2.00;;
43150;SDS011;28755;51.478;5.702;2023-02-28T15:58:49;3.55;;;2.03;;
43150;SDS011;28755;51.478;5.702;2023-02-28T16:01:24;2.92;;;1.90;;
43150;SDS011;28755;51.478;5.702;2023-02-28T16:03:51;4.30;;;1.92;;
43150;SDS011;28755;51.478;5.702;2023-02-28T16:06:23;3.40;;;2.10;;
43150;SDS011;28755;51.478;5.702;2023-02-28T16:08:50;5.68;;;2.05;;
43150;SDS011;28755;51.478;5.702;2023-02-28T16:11:16;3.00;;;1.80;;
43150;SDS011;28755;51.478;5.702;2023-02-28T16:13:42;3.65;;;2.15;;
43150;SDS011;28755;51.478;5.702;2023-02-28T16:16:07;4.28;;;1.90;;
43150;SDS011;28755;51.478;5.702;2023-02-28T16:18:33;3.13;;;2.20;;
43150;SDS011;28755;51.478;5.702;2023-02-28T16:20:59;5.78;;;2.17;;
43150;SDS011;28755;51.478;5.702;2023-02-28T16:23:24;4.82;;;2.00;;
43150;SDS011;28755;51.478;5.702;2023-02-28T16:25:50;4.70;;;2.05;;
43150;SDS011;28755;51.478;5.702;2023-02-28T16:28:18;2.65;;;1.95;;
43150;SDS011;28755;51.478;5.702;2023-02-28T16:30:56;3.58;;;2.50;;
43150;SDS011;28755;51.478;5.702;2023-02-28T16:33:21;4.95;;;2.53;;
43150;SDS011;28755;51.478;5.702;2023-02-28T16:35:47;3.33;;;2.17;;
43150;SDS011;28755;51.478;5.702;2023-02-28T16:38:13;4.95;;;3.10;;
43150;SDS011;28755;51.478;5.702;2023-02-28T16:40:38;4.97;;;2.65;;
43150;SDS011;28755;51.478;5.702;2023-02-28T16:43:05;3.13;;;2.25;;
43150;SDS011;28755;51.478;5.702;2023-02-28T16:45:34;4.82;;;2.53;;
43150;SDS011;28755;51.478;5.702;2023-02-28T16:47:59;4.32;;;2.35;;
43150;SDS011;28755;51.478;5.702;2023-02-28T16:50:26;3.95;;;2.15;;
43150;SDS011;28755;51.478;5.702;2023-02-28T16:52:53;4.40;;;2.42;;
43150;SDS011;28755;51.478;5.702;2023-02-28T16:55:19;6.03;;;2.05;;
43150;SDS011;28755;51.478;5.702;2023-02-28T16:57:53;3.05;;;2.28;;
43150;SDS011;28755;51.478;5.702;2023-02-28T17:00:21;4.20;;;2.40;;
43150;SDS011;28755;51.478;5.702;2023-02-28T17:02:47;3.47;;;2.15;;
43150;SDS011;28755;51.478;5.702;2023-02-28T17:05:12;3.08;;;2.05;;
43150;SDS011;28755;51.478;5.702;2023-02-28T17:07:40;3.17;;;2.20;;
43150;SDS011;28755;51.478;5.702;2023-02-28T17:10:16;4.40;;;3.25;;
43150;SDS011;28755;51.478;5.702;2023-02-28T17:12:42;5.00;;;2.45;;
43150;SDS011;28755;51.478;5.702;2023-02-28T17:15:08;313.92;;;13.75;;
43150;SDS011;28755;51.478;5.702;2023-02-28T17:17:35;8.27;;;2.58;;
43150;SDS011;28755;51.478;5.702;2023-02-28T17:20:02;4.40;;;2.60;;
43150;SDS011;28755;51.478;5.702;2023-02-28T17:22:28;4.13;;;2.80;;
43150;SDS011;28755;51.478;5.702;2023-02-28T17:24:53;3.65;;;2.75;;
43150;SDS011;28755;51.478;5.702;2023-02-28T17:27:22;3.30;;;2.45;;
43150;SDS011;28755;51.478;5.702;2023-02-28T17:29:48;5.90;;;2.97;;
43150;SDS011;28755;51.478;5.702;2023-02-28T17:32:14;11.05;;;5.43;;
43150;SDS011;28755;51.478;5.702;2023-02-28T17:34:39;4.70;;;2.80;;
43150;SDS011;28755;51.478;5.702;2023-02-28T17:37:05;4.80;;;2.45;;
43150;SDS011;28755;51.478;5.702;2023-02-28T17:39:30;6.40;;;3.58;;
43150;SDS011;28755;51.478;5.702;2023-02-28T17:41:56;16.58;;;11.52;;
43150;SDS011;28755;51.478;5.702;2023-02-28T17:44:22;5.45;;;3.10;;
43150;SDS011;28755;51.478;5.702;2023-02-28T17:46:49;4.55;;;2.80;;
43150;SDS011;28755;51.478;5.702;2023-02-28T17:49:15;3.05;;;2.50;;